Norsul Tubarao — 3FJV6 — position and weather

sailwx.info

Track history (hours):
 
Tides and Currents Weather Stations Pressure Air Temp Water Temp Dewpoint Dewpoint Depression Visibility Wind Speed Wind Dir Waves Ship Positions

Norsul Tubarao

Last reported at 2016-Aug-25 00:28 UTC. Time now 2016-Aug-31 16:02 UTC.
Position N 36°59' E 126°16'.

Length 175 m; draft 7.3 m.

Type: Cargo ship. MMSI: 373182000.

Date/timePositionNaut miles runAvg speedWind from/ knotsBaromVisibWave heightAir tempDewpointWater temp
2016-Aug-25 00:28N 36°59' E 126°16'9 9.3
2016-Aug-24 23:33N 36°53' E 126°09'19 8.9
2016-Aug-24 21:25N 36°37' E 125°56'1313.9
2016-Aug-24 20:30N 36°26' E 125°47'11412.2
2016-Aug-24 11:11N 34°40' E 124°55'  
2016-Aug-17 05:31N 01°15' E 104°07'1111.1
2016-Aug-17 04:33N 01°14' E 103°56'9 9.4
2016-Aug-17 03:33N 01°10' E 103°47'8 8.3
2016-Aug-17 02:33N 01°04' E 103°41'6510.5
2016-Aug-16 20:24N 01°39' E 102°47'1311.0
2016-Aug-16 19:13N 01°44' E 102°35'910.7
2016-Aug-16 18:24N 01°48' E 102°27'910.7
2016-Aug-16 17:33N 01°51' E 102°18'5110.1
2016-Aug-16 12:28N 02°23' E 101°38'  
Track history (hours):
 
Tides and Currents Weather Stations Pressure Air Temp Water Temp Dewpoint Dewpoint Depression Visibility Wind Speed Wind Dir Waves Ship Positions

Norsul Tubarao

Last reported at 2016-Aug-25 00:28 UTC. Time now 2016-Aug-31 16:02 UTC.
Position N 36°59' E 126°16'.

Length 175 m; draft 7.3 m.

Type: Cargo ship. MMSI: 373182000.

Date/timePositionNaut miles runAvg speedWind from/ knotsBaromVisibWave heightAir tempDewpointWater temp
2016-Aug-25 00:28N 36°59' E 126°16'9 9.3
2016-Aug-24 23:33N 36°53' E 126°09'19 8.9
2016-Aug-24 21:25N 36°37' E 125°56'1313.9
2016-Aug-24 20:30N 36°26' E 125°47'11412.2
2016-Aug-24 11:11N 34°40' E 124°55'  
2016-Aug-17 05:31N 01°15' E 104°07'1111.1
2016-Aug-17 04:33N 01°14' E 103°56'9 9.4
2016-Aug-17 03:33N 01°10' E 103°47'8 8.3
2016-Aug-17 02:33N 01°04' E 103°41'6510.5
2016-Aug-16 20:24N 01°39' E 102°47'1311.0
2016-Aug-16 19:13N 01°44' E 102°35'910.7
2016-Aug-16 18:24N 01°48' E 102°27'910.7
2016-Aug-16 17:33N 01°51' E 102°18'5110.1
2016-Aug-16 12:28N 02°23' E 101°38'  

Dump ship's entire track history